sensor_id;sensor_type;location;lat;lon;timestamp;pressure;altitude;pressure_sealevel;temperature;humidity
25610;BME280;13479;49.044;8.716;2023-03-21T05:02:11;99045.13;;;9.42;69.45
25610;BME280;13479;49.044;8.716;2023-03-21T05:04:37;99040.66;;;9.42;69.26
25610;BME280;13479;49.044;8.716;2023-03-21T05:07:03;99029.69;;;9.47;69.60
25610;BME280;13479;49.044;8.716;2023-03-21T05:09:28;99033.31;;;9.46;69.32
25610;BME280;13479;49.044;8.716;2023-03-21T05:11:53;99043.41;;;9.52;69.38
25610;BME280;13479;49.044;8.716;2023-03-21T05:14:22;99032.59;;;9.44;69.52
25610;BME280;13479;49.044;8.716;2023-03-21T05:16:48;99027.50;;;9.52;69.50
25610;BME280;13479;49.044;8.716;2023-03-21T05:19:18;99040.44;;;9.46;69.57
25610;BME280;13479;49.044;8.716;2023-03-21T05:21:45;99043.81;;;9.36;69.27
25610;BME280;13479;49.044;8.716;2023-03-21T05:24:14;99058.53;;;9.29;69.48
25610;BME280;13479;49.044;8.716;2023-03-21T05:26:40;99044.56;;;9.16;69.51
25610;BME280;13479;49.044;8.716;2023-03-21T05:29:06;99042.44;;;9.09;69.39
25610;BME280;13479;49.044;8.716;2023-03-21T05:31:32;99035.22;;;9.00;69.49
25610;BME280;13479;49.044;8.716;2023-03-21T05:33:57;99027.38;;;8.87;69.52
25610;BME280;13479;49.044;8.716;2023-03-21T05:36:23;99015.59;;;8.80;69.60
25610;BME280;13479;49.044;8.716;2023-03-21T05:38:48;99009.09;;;8.73;70.19
25610;BME280;13479;49.044;8.716;2023-03-21T05:41:15;98995.16;;;8.71;70.29
25610;BME280;13479;49.044;8.716;2023-03-21T05:43:40;98979.97;;;8.73;70.96
25610;BME280;13479;49.044;8.716;2023-03-21T05:46:06;98979.16;;;8.72;71.25
25610;BME280;13479;49.044;8.716;2023-03-21T05:48:32;98997.81;;;8.82;71.66
25610;BME280;13479;49.044;8.716;2023-03-21T05:50:59;99006.34;;;8.86;71.69
25610;BME280;13479;49.044;8.716;2023-03-21T05:53:24;99014.38;;;8.95;71.99
25610;BME280;13479;49.044;8.716;2023-03-21T05:55:49;99032.44;;;9.02;71.87
25610;BME280;13479;49.044;8.716;2023-03-21T05:58:14;99028.31;;;9.20;72.16
25610;BME280;13479;49.044;8.716;2023-03-21T06:00:40;99069.81;;;9.42;71.12
25610;BME280;13479;49.044;8.716;2023-03-21T06:03:05;99096.09;;;9.46;70.88
25610;BME280;13479;49.044;8.716;2023-03-21T06:05:31;99115.94;;;9.51;70.63
25610;BME280;13479;49.044;8.716;2023-03-21T06:07:56;99123.16;;;9.49;70.51
25610;BME280;13479;49.044;8.716;2023-03-21T06:10:21;99130.63;;;9.55;70.02
25610;BME280;13479;49.044;8.716;2023-03-21T06:12:46;99155.19;;;9.57;69.93
25610;BME280;13479;49.044;8.716;2023-03-21T06:15:12;99157.72;;;9.59;69.70
25610;BME280;13479;49.044;8.716;2023-03-21T06:17:37;99146.75;;;9.64;70.12
25610;BME280;13479;49.044;8.716;2023-03-21T06:20:04;99148.75;;;9.83;69.69
25610;BME280;13479;49.044;8.716;2023-03-21T06:22:31;99172.88;;;10.77;68.86
25610;BME280;13479;49.044;8.716;2023-03-21T06:24:57;99244.44;;;12.24;65.52
25610;BME280;13479;49.044;8.716;2023-03-21T06:27:22;99236.31;;;13.62;61.81
25610;BME280;13479;49.044;8.716;2023-03-21T06:29:48;99184.75;;;14.35;57.55
25610;BME280;13479;49.044;8.716;2023-03-21T06:32:13;99184.06;;;15.48;53.41
25610;BME280;13479;49.044;8.716;2023-03-21T06:34:39;99150.44;;;15.88;50.59
25610;BME280;13479;49.044;8.716;2023-03-21T06:37:04;99143.94;;;16.08;48.67
25610;BME280;13479;49.044;8.716;2023-03-21T06:39:30;99138.59;;;16.08;47.79
25610;BME280;13479;49.044;8.716;2023-03-21T06:41:56;99141.28;;;16.74;47.12
25610;BME280;13479;49.044;8.716;2023-03-21T06:44:21;99139.88;;;17.67;44.75
25610;BME280;13479;49.044;8.716;2023-03-21T06:46:48;99142.59;;;17.90;43.53
25610;BME280;13479;49.044;8.716;2023-03-21T06:49:13;99150.00;;;17.49;43.38
25610;BME280;13479;49.044;8.716;2023-03-21T06:51:39;99158.00;;;16.84;44.36
25610;BME280;13479;49.044;8.716;2023-03-21T06:54:04;99122.56;;;16.24;46.09
25610;BME280;13479;49.044;8.716;2023-03-21T06:56:29;99093.66;;;15.77;46.67
25610;BME280;13479;49.044;8.716;2023-03-21T06:58:55;99059.00;;;15.58;47.78
25610;BME280;13479;49.044;8.716;2023-03-21T07:01:20;99032.44;;;15.65;47.81
25610;BME280;13479;49.044;8.716;2023-03-21T07:03:46;99040.16;;;15.85;47.69
25610;BME280;13479;49.044;8.716;2023-03-21T07:06:11;99060.09;;;15.99;46.92
25610;BME280;13479;49.044;8.716;2023-03-21T07:08:38;99107.50;;;16.15;45.74
25610;BME280;13479;49.044;8.716;2023-03-21T07:11:04;99120.34;;;16.11;46.27
25610;BME280;13479;49.044;8.716;2023-03-21T07:13:30;99124.88;;;16.02;46.12
25610;BME280;13479;49.044;8.716;2023-03-21T07:15:56;99115.09;;;15.77;46.97
25610;BME280;13479;49.044;8.716;2023-03-21T07:18:21;99097.66;;;15.64;47.07
25610;BME280;13479;49.044;8.716;2023-03-21T07:20:47;99078.22;;;15.54;47.39
25610;BME280;13479;49.044;8.716;2023-03-21T07:23:18;99084.25;;;15.56;47.33
25610;BME280;13479;49.044;8.716;2023-03-21T07:25:43;99070.25;;;15.70;47.02
25610;BME280;13479;49.044;8.716;2023-03-21T07:28:08;99072.00;;;16.13;46.59
25610;BME280;13479;49.044;8.716;2023-03-21T07:30:34;99129.00;;;17.60;44.09
25610;BME280;13479;49.044;8.716;2023-03-21T07:33:00;99160.34;;;19.68;40.33
25610;BME280;13479;49.044;8.716;2023-03-21T07:35:26;99167.25;;;20.50;38.08
25610;BME280;13479;49.044;8.716;2023-03-21T07:37:51;99175.09;;;21.24;36.27
25610;BME280;13479;49.044;8.716;2023-03-21T07:40:16;99183.88;;;21.68;34.69
25610;BME280;13479;49.044;8.716;2023-03-21T07:42:42;99195.19;;;21.91;34.15
25610;BME280;13479;49.044;8.716;2023-03-21T07:45:08;99193.16;;;22.00;33.60
25610;BME280;13479;49.044;8.716;2023-03-21T07:47:34;99199.56;;;22.75;33.65
25610;BME280;13479;49.044;8.716;2023-03-21T07:49:59;99194.03;;;23.69;32.01
25610;BME280;13479;49.044;8.716;2023-03-21T07:52:25;99209.78;;;24.76;30.63
25610;BME280;13479;49.044;8.716;2023-03-21T07:54:50;99203.53;;;25.45;29.87
25610;BME280;13479;49.044;8.716;2023-03-21T07:57:15;99214.59;;;26.18;28.22
25610;BME280;13479;49.044;8.716;2023-03-21T07:59:42;99194.56;;;27.56;26.14
25610;BME280;13479;49.044;8.716;2023-03-21T08:02:12;99212.59;;;28.10;24.86
25610;BME280;13479;49.044;8.716;2023-03-21T08:04:38;99218.50;;;28.19;24.47
25610;BME280;13479;49.044;8.716;2023-03-21T08:07:04;99217.91;;;28.17;24.49
25610;BME280;13479;49.044;8.716;2023-03-21T08:09:29;99225.16;;;29.37;23.17
25610;BME280;13479;49.044;8.716;2023-03-21T08:11:55;99218.81;;;29.98;22.59
25610;BME280;13479;49.044;8.716;2023-03-21T08:14:20;99211.03;;;31.37;21.21
25610;BME280;13479;49.044;8.716;2023-03-21T08:16:46;99201.59;;;32.45;19.99
25610;BME280;13479;49.044;8.716;2023-03-21T08:19:11;99201.53;;;33.43;19.13
25610;BME280;13479;49.044;8.716;2023-03-21T08:21:36;99210.50;;;34.30;18.82
25610;BME280;13479;49.044;8.716;2023-03-21T08:24:03;99202.72;;;35.12;17.67
25610;BME280;13479;49.044;8.716;2023-03-21T08:26:28;99210.66;;;34.54;17.49
25610;BME280;13479;49.044;8.716;2023-03-21T08:28:56;99209.44;;;33.70;17.63
25610;BME280;13479;49.044;8.716;2023-03-21T08:31:21;99206.25;;;32.70;18.19
25610;BME280;13479;49.044;8.716;2023-03-21T08:33:46;99214.53;;;33.01;18.25
25610;BME280;13479;49.044;8.716;2023-03-21T08:36:15;99211.97;;;33.56;17.84
25610;BME280;13479;49.044;8.716;2023-03-21T08:38:40;99205.06;;;34.19;17.50
25610;BME280;13479;49.044;8.716;2023-03-21T08:41:05;99211.44;;;35.24;16.57
25610;BME280;13479;49.044;8.716;2023-03-21T08:43:31;99204.66;;;35.65;16.29
25610;BME280;13479;49.044;8.716;2023-03-21T08:45:56;99206.41;;;35.80;15.88
25610;BME280;13479;49.044;8.716;2023-03-21T08:48:22;99210.78;;;34.33;17.16
25610;BME280;13479;49.044;8.716;2023-03-21T08:50:47;99217.25;;;33.42;17.83
25610;BME280;13479;49.044;8.716;2023-03-21T08:53:12;99209.31;;;32.94;17.85
25610;BME280;13479;49.044;8.716;2023-03-21T08:55:38;99206.53;;;32.53;18.28
25610;BME280;13479;49.044;8.716;2023-03-21T08:58:03;99190.03;;;32.74;18.32
25610;BME280;13479;49.044;8.716;2023-03-21T09:00:29;99193.31;;;32.40;18.74
25610;BME280;13479;49.044;8.716;2023-03-21T09:02:55;99189.38;;;31.99;18.71
25610;BME280;13479;49.044;8.716;2023-03-21T09:05:21;99185.81;;;31.40;19.18
25610;BME280;13479;49.044;8.716;2023-03-21T09:07:47;99179.72;;;31.23;19.64
25610;BME280;13479;49.044;8.716;2023-03-21T09:10:19;99185.00;;;31.02;19.91
25610;BME280;13479;49.044;8.716;2023-03-21T09:12:46;99173.66;;;29.96;20.76
25610;BME280;13479;49.044;8.716;2023-03-21T09:15:11;99176.44;;;29.34;21.31
25610;BME280;13479;49.044;8.716;2023-03-21T09:17:38;99168.53;;;28.99;21.29
25610;BME280;13479;49.044;8.716;2023-03-21T09:20:10;99159.78;;;28.04;22.31
25610;BME280;13479;49.044;8.716;2023-03-21T09:22:43;99163.72;;;27.56;22.85
25610;BME280;13479;49.044;8.716;2023-03-21T09:25:09;99154.66;;;26.91;23.42
25610;BME280;13479;49.044;8.716;2023-03-21T09:27:35;99152.38;;;26.21;24.16
25610;BME280;13479;49.044;8.716;2023-03-21T09:30:00;99153.53;;;25.65;25.64
25610;BME280;13479;49.044;8.716;2023-03-21T09:32:26;99150.94;;;25.14;26.65
25610;BME280;13479;49.044;8.716;2023-03-21T09:34:52;99159.81;;;24.52;27.10
25610;BME280;13479;49.044;8.716;2023-03-21T09:37:19;99150.72;;;24.08;27.53
25610;BME280;13479;49.044;8.716;2023-03-21T09:39:45;99143.66;;;23.48;28.72
25610;BME280;13479;49.044;8.716;2023-03-21T09:42:39;99150.66;;;22.90;29.43
25610;BME280;13479;49.044;8.716;2023-03-21T09:45:18;99148.34;;;22.46;29.93
25610;BME280;13479;49.044;8.716;2023-03-21T09:47:47;99149.47;;;21.90;30.66
25610;BME280;13479;49.044;8.716;2023-03-21T09:50:25;99152.34;;;21.40;32.01
25610;BME280;13479;49.044;8.716;2023-03-21T09:55:32;99145.94;;;20.77;32.33
25610;BME280;13479;49.044;8.716;2023-03-21T10:00:34;99132.25;;;20.35;33.15
25610;BME280;13479;49.044;8.716;2023-03-21T10:03:04;99132.03;;;20.09;33.69
25610;BME280;13479;49.044;8.716;2023-03-21T10:05:32;99131.75;;;20.03;33.92
25610;BME280;13479;49.044;8.716;2023-03-21T10:08:08;99122.97;;;19.80;34.15
25610;BME280;13479;49.044;8.716;2023-03-21T10:10:42;99120.88;;;19.60;35.38
25610;BME280;13479;49.044;8.716;2023-03-21T10:13:16;99118.56;;;19.57;35.76
25610;BME280;13479;49.044;8.716;2023-03-21T10:15:44;99106.22;;;19.48;35.35
25610;BME280;13479;49.044;8.716;2023-03-21T10:18:16;99104.78;;;19.30;35.94
25610;BME280;13479;49.044;8.716;2023-03-21T10:20:43;99106.59;;;19.44;35.33
25610;BME280;13479;49.044;8.716;2023-03-21T10:23:14;99082.38;;;19.44;34.78
25610;BME280;13479;49.044;8.716;2023-03-21T10:25:47;99083.50;;;19.35;35.46
25610;BME280;13479;49.044;8.716;2023-03-21T10:28:16;99080.59;;;19.37;36.29
25610;BME280;13479;49.044;8.716;2023-03-21T10:30:53;99081.38;;;19.31;36.32
25610;BME280;13479;49.044;8.716;2023-03-21T10:33:22;99079.25;;;19.26;36.42
25610;BME280;13479;49.044;8.716;2023-03-21T10:35:52;99070.78;;;19.14;37.53
25610;BME280;13479;49.044;8.716;2023-03-21T10:38:23;99066.81;;;19.25;37.24
25610;BME280;13479;49.044;8.716;2023-03-21T10:40:49;99058.94;;;19.23;36.39
25610;BME280;13479;49.044;8.716;2023-03-21T10:43:17;99050.38;;;19.20;36.92
25610;BME280;13479;49.044;8.716;2023-03-21T10:45:47;99060.41;;;19.26;37.20
25610;BME280;13479;49.044;8.716;2023-03-21T10:48:12;99054.00;;;19.27;36.42
25610;BME280;13479;49.044;8.716;2023-03-21T10:50:38;99050.38;;;19.35;36.68
25610;BME280;13479;49.044;8.716;2023-03-21T10:53:13;99044.69;;;19.44;36.09
25610;BME280;13479;49.044;8.716;2023-03-21T10:55:40;99038.91;;;19.48;36.42
25610;BME280;13479;49.044;8.716;2023-03-21T10:58:08;99039.19;;;19.53;35.96
25610;BME280;13479;49.044;8.716;2023-03-21T11:00:39;99041.63;;;19.48;36.16
25610;BME280;13479;49.044;8.716;2023-03-21T11:03:06;99037.25;;;19.47;35.90
25610;BME280;13479;49.044;8.716;2023-03-21T11:05:37;99035.94;;;19.42;35.87
25610;BME280;13479;49.044;8.716;2023-03-21T11:08:09;99037.25;;;19.47;36.36
25610;BME280;13479;49.044;8.716;2023-03-21T11:10:47;99033.81;;;19.53;36.58
25610;BME280;13479;49.044;8.716;2023-03-21T11:13:23;99033.41;;;19.56;36.89
25610;BME280;13479;49.044;8.716;2023-03-21T11:15:53;99036.81;;;19.65;36.86
25610;BME280;13479;49.044;8.716;2023-03-21T11:18:24;99032.38;;;19.57;36.89
25610;BME280;13479;49.044;8.716;2023-03-21T11:20:52;99031.50;;;19.50;37.13
25610;BME280;13479;49.044;8.716;2023-03-21T11:23:19;99033.25;;;19.42;37.85
25610;BME280;13479;49.044;8.716;2023-03-21T11:25:48;99037.50;;;19.30;38.35
25610;BME280;13479;49.044;8.716;2023-03-21T11:28:17;99024.09;;;19.37;38.12
25610;BME280;13479;49.044;8.716;2023-03-21T11:30:56;99023.38;;;19.28;38.08
25610;BME280;13479;49.044;8.716;2023-03-21T11:33:46;99024.13;;;19.22;37.87
25610;BME280;13479;49.044;8.716;2023-03-21T11:38:48;99010.41;;;18.87;39.13
25610;BME280;13479;49.044;8.716;2023-03-21T11:41:27;99015.22;;;18.76;39.38
25610;BME280;13479;49.044;8.716;2023-03-21T11:43:53;99004.56;;;18.83;39.18
25610;BME280;13479;49.044;8.716;2023-03-21T11:46:23;99004.88;;;18.73;39.49
25610;BME280;13479;49.044;8.716;2023-03-21T11:48:49;98997.25;;;18.62;38.99
25610;BME280;13479;49.044;8.716;2023-03-21T11:51:27;98988.72;;;18.73;38.40
25610;BME280;13479;49.044;8.716;2023-03-21T11:54:24;98996.03;;;18.79;38.04
25610;BME280;13479;49.044;8.716;2023-03-21T11:57:53;98998.91;;;18.93;38.29
25610;BME280;13479;49.044;8.716;2023-03-21T12:00:05;99008.13;;;18.98;37.76
25610;BME280;13479;49.044;8.716;2023-03-21T12:05:38;98996.63;;;19.26;37.91
25610;BME280;13479;49.044;8.716;2023-03-21T12:08:25;99002.03;;;19.26;37.38
25610;BME280;13479;49.044;8.716;2023-03-21T12:11:04;98987.50;;;19.42;38.16
25610;BME280;13479;49.044;8.716;2023-03-21T12:13:45;98996.00;;;19.61;37.43
25610;BME280;13479;49.044;8.716;2023-03-21T12:19:14;99002.66;;;20.09;36.08
25610;BME280;13479;49.044;8.716;2023-03-21T12:21:53;98990.75;;;19.74;36.22
25610;BME280;13479;49.044;8.716;2023-03-21T12:24:31;98994.47;;;19.95;36.16
25610;BME280;13479;49.044;8.716;2023-03-21T12:35:33;98991.44;;;20.33;35.73
25610;BME280;13479;49.044;8.716;2023-03-21T12:41:11;98997.25;;;20.65;35.22
25610;BME280;13479;49.044;8.716;2023-03-21T12:48:50;98990.03;;;20.73;34.91
25610;BME280;13479;49.044;8.716;2023-03-21T12:51:21;98973.69;;;20.46;34.89
25610;BME280;13479;49.044;8.716;2023-03-21T12:54:13;98983.53;;;20.60;34.86
25610;BME280;13479;49.044;8.716;2023-03-21T12:56:51;98979.41;;;20.64;34.42
25610;BME280;13479;49.044;8.716;2023-03-21T12:59:26;98969.34;;;20.51;34.77
25610;BME280;13479;49.044;8.716;2023-03-21T13:01:59;98969.09;;;20.40;35.84
25610;BME280;13479;49.044;8.716;2023-03-21T13:04:54;98963.44;;;20.34;35.28
25610;BME280;13479;49.044;8.716;2023-03-21T13:07:23;98963.06;;;20.37;35.28
25610;BME280;13479;49.044;8.716;2023-03-21T13:09:49;98957.75;;;20.51;35.18
25610;BME280;13479;49.044;8.716;2023-03-21T13:18:12;98957.72;;;20.44;34.49
25610;BME280;13479;49.044;8.716;2023-03-21T13:20:46;98946.97;;;20.51;34.91
25610;BME280;13479;49.044;8.716;2023-03-21T13:23:13;98948.09;;;20.70;34.70
25610;BME280;13479;49.044;8.716;2023-03-21T13:25:45;98947.91;;;20.72;34.41
25610;BME280;13479;49.044;8.716;2023-03-21T13:28:25;98952.84;;;20.61;35.43
25610;BME280;13479;49.044;8.716;2023-03-21T13:30:51;98949.88;;;20.56;35.13
25610;BME280;13479;49.044;8.716;2023-03-21T13:33:22;98938.72;;;20.59;35.63
25610;BME280;13479;49.044;8.716;2023-03-21T13:36:07;98930.94;;;20.78;35.91
25610;BME280;13479;49.044;8.716;2023-03-21T13:38:34;98923.25;;;20.75;35.30
25610;BME280;13479;49.044;8.716;2023-03-21T13:41:07;98924.50;;;20.79;34.70
25610;BME280;13479;49.044;8.716;2023-03-21T13:59:34;98929.84;;;21.27;33.85
25610;BME280;13479;49.044;8.716;2023-03-21T14:04:38;98921.31;;;21.17;33.69
25610;BME280;13479;49.044;8.716;2023-03-21T14:07:10;98916.56;;;21.19;33.46
25610;BME280;13479;49.044;8.716;2023-03-21T14:09:43;98915.69;;;21.12;33.63
25610;BME280;13479;49.044;8.716;2023-03-21T14:12:14;98905.50;;;21.07;34.29
25610;BME280;13479;49.044;8.716;2023-03-21T14:14:44;98906.56;;;21.13;33.53
25610;BME280;13479;49.044;8.716;2023-03-21T14:17:20;98912.78;;;21.07;33.87
25610;BME280;13479;49.044;8.716;2023-03-21T14:19:51;98901.59;;;21.30;34.57
25610;BME280;13479;49.044;8.716;2023-03-21T14:22:17;98887.50;;;21.48;34.17
25610;BME280;13479;49.044;8.716;2023-03-21T14:24:47;98890.00;;;21.43;33.71
25610;BME280;13479;49.044;8.716;2023-03-21T14:27:13;98881.91;;;21.36;34.60
25610;BME280;13479;49.044;8.716;2023-03-21T14:29:38;98889.31;;;21.14;34.75
25610;BME280;13479;49.044;8.716;2023-03-21T14:32:03;98874.91;;;20.80;35.41
25610;BME280;13479;49.044;8.716;2023-03-21T14:34:32;98866.66;;;20.88;36.43
25610;BME280;13479;49.044;8.716;2023-03-21T14:36:58;98861.66;;;20.85;36.22
25610;BME280;13479;49.044;8.716;2023-03-21T14:39:31;98860.66;;;21.00;35.78
25610;BME280;13479;49.044;8.716;2023-03-21T14:42:15;98863.13;;;20.94;35.39
25610;BME280;13479;49.044;8.716;2023-03-21T14:44:46;98850.03;;;20.91;36.97
25610;BME280;13479;49.044;8.716;2023-03-21T14:47:18;98852.31;;;20.88;36.50
25610;BME280;13479;49.044;8.716;2023-03-21T14:49:44;98846.69;;;20.76;35.40
25610;BME280;13479;49.044;8.716;2023-03-21T14:52:15;98846.22;;;20.65;36.44
25610;BME280;13479;49.044;8.716;2023-03-21T14:54:44;98842.00;;;20.43;36.16
25610;BME280;13479;49.044;8.716;2023-03-21T14:57:13;98840.59;;;20.18;35.91
25610;BME280;13479;49.044;8.716;2023-03-21T14:59:40;98840.16;;;20.08;36.62
25610;BME280;13479;49.044;8.716;2023-03-21T15:02:25;98838.94;;;20.17;37.20
25610;BME280;13479;49.044;8.716;2023-03-21T15:04:53;98833.59;;;20.24;37.39
25610;BME280;13479;49.044;8.716;2023-03-21T15:07:32;98829.88;;;20.25;37.33
25610;BME280;13479;49.044;8.716;2023-03-21T15:10:13;98831.06;;;20.16;37.44
25610;BME280;13479;49.044;8.716;2023-03-21T15:12:52;98824.41;;;20.12;38.11
25610;BME280;13479;49.044;8.716;2023-03-21T15:15:18;98825.59;;;20.02;37.76
25610;BME280;13479;49.044;8.716;2023-03-21T15:17:44;98836.13;;;19.90;36.54
25610;BME280;13479;49.044;8.716;2023-03-21T15:20:14;98829.63;;;19.85;37.07
25610;BME280;13479;49.044;8.716;2023-03-21T15:22:44;98828.69;;;19.71;38.02
25610;BME280;13479;49.044;8.716;2023-03-21T15:25:15;98817.38;;;19.54;38.58
25610;BME280;13479;49.044;8.716;2023-03-21T15:27:42;98818.13;;;19.41;38.41
25610;BME280;13479;49.044;8.716;2023-03-21T15:30:23;98824.34;;;19.41;37.29
25610;BME280;13479;49.044;8.716;2023-03-21T15:32:49;98841.19;;;19.28;36.73
25610;BME280;13479;49.044;8.716;2023-03-21T15:35:20;98841.06;;;19.37;36.40
25610;BME280;13479;49.044;8.716;2023-03-21T15:37:54;98835.50;;;19.38;36.79
25610;BME280;13479;49.044;8.716;2023-03-21T15:40:30;98851.38;;;19.33;34.80
25610;BME280;13479;49.044;8.716;2023-03-21T15:43:15;98847.16;;;19.02;33.41
25610;BME280;13479;49.044;8.716;2023-03-21T15:45:46;98845.44;;;18.79;34.04
25610;BME280;13479;49.044;8.716;2023-03-21T15:48:13;98848.50;;;18.76;34.77
25610;BME280;13479;49.044;8.716;2023-03-21T15:50:40;98850.41;;;18.61;35.38
25610;BME280;13479;49.044;8.716;2023-03-21T15:53:15;98839.81;;;18.74;36.22
25610;BME280;13479;49.044;8.716;2023-03-21T15:55:54;98833.25;;;18.62;37.58
25610;BME280;13479;49.044;8.716;2023-03-21T15:58:23;98818.97;;;18.61;38.33
25610;BME280;13479;49.044;8.716;2023-03-21T16:00:54;98818.00;;;18.47;38.71
25610;BME280;13479;49.044;8.716;2023-03-21T16:03:29;98801.50;;;18.50;39.19
25610;BME280;13479;49.044;8.716;2023-03-21T16:08:32;98801.44;;;18.29;39.85
25610;BME280;13479;49.044;8.716;2023-03-21T16:11:07;98796.16;;;18.20;40.17
25610;BME280;13479;49.044;8.716;2023-03-21T16:13:33;98787.09;;;18.21;39.74
25610;BME280;13479;49.044;8.716;2023-03-21T16:15:58;98785.16;;;18.15;38.73
25610;BME280;13479;49.044;8.716;2023-03-21T16:18:23;98791.00;;;18.04;37.75
25610;BME280;13479;49.044;8.716;2023-03-21T16:20:48;98794.94;;;17.93;37.75
25610;BME280;13479;49.044;8.716;2023-03-21T16:23:15;98804.03;;;17.92;37.14
25610;BME280;13479;49.044;8.716;2023-03-21T16:25:42;98806.25;;;17.73;37.01
25610;BME280;13479;49.044;8.716;2023-03-21T16:28:13;98807.47;;;17.71;36.63
25610;BME280;13479;49.044;8.716;2023-03-21T16:30:39;98803.66;;;17.65;37.04
25610;BME280;13479;49.044;8.716;2023-03-21T16:33:05;98812.31;;;17.52;36.91
25610;BME280;13479;49.044;8.716;2023-03-21T16:35:30;98799.19;;;17.42;36.78
25610;BME280;13479;49.044;8.716;2023-03-21T16:37:56;98804.25;;;17.37;36.78
25610;BME280;13479;49.044;8.716;2023-03-21T16:40:26;98802.75;;;17.35;36.80
25610;BME280;13479;49.044;8.716;2023-03-21T16:42:53;98792.13;;;17.26;37.65
25610;BME280;13479;49.044;8.716;2023-03-21T16:45:18;98793.25;;;17.47;36.81
25610;BME280;13479;49.044;8.716;2023-03-21T16:47:43;98803.44;;;17.52;36.37
25610;BME280;13479;49.044;8.716;2023-03-21T16:50:21;98817.31;;;17.40;36.54
25610;BME280;13479;49.044;8.716;2023-03-21T16:52:48;98810.81;;;17.11;36.94
25610;BME280;13479;49.044;8.716;2023-03-21T16:55:13;98815.50;;;16.86;38.57
25610;BME280;13479;49.044;8.716;2023-03-21T16:57:40;98806.72;;;16.77;38.93
25610;BME280;13479;49.044;8.716;2023-03-21T17:00:06;98796.34;;;16.74;38.92
25610;BME280;13479;49.044;8.716;2023-03-21T17:02:33;98779.78;;;16.71;39.73
25610;BME280;13479;49.044;8.716;2023-03-21T17:04:59;98782.88;;;16.59;40.35
25610;BME280;13479;49.044;8.716;2023-03-21T17:07:25;98777.97;;;16.63;40.78
25610;BME280;13479;49.044;8.716;2023-03-21T17:09:50;98781.81;;;16.68;41.51
25610;BME280;13479;49.044;8.716;2023-03-21T17:12:16;98778.19;;;16.53;40.94
25610;BME280;13479;49.044;8.716;2023-03-21T17:14:42;98779.34;;;16.27;42.22
25610;BME280;13479;49.044;8.716;2023-03-21T17:17:10;98784.22;;;16.24;42.92
25610;BME280;13479;49.044;8.716;2023-03-21T17:19:35;98767.47;;;16.30;42.31
25610;BME280;13479;49.044;8.716;2023-03-21T17:22:01;98771.41;;;16.42;41.44
25610;BME280;13479;49.044;8.716;2023-03-21T17:24:26;98772.34;;;16.26;41.98
25610;BME280;13479;49.044;8.716;2023-03-21T17:26:52;98778.09;;;16.15;42.21
25610;BME280;13479;49.044;8.716;2023-03-21T17:29:17;98790.81;;;16.04;44.12
25610;BME280;13479;49.044;8.716;2023-03-21T17:31:43;98805.25;;;15.95;44.83
25610;BME280;13479;49.044;8.716;2023-03-21T17:34:11;98809.44;;;15.89;44.98
25610;BME280;13479;49.044;8.716;2023-03-21T17:36:38;98798.09;;;15.87;44.71
25610;BME280;13479;49.044;8.716;2023-03-21T17:39:06;98791.91;;;15.79;45.08
25610;BME280;13479;49.044;8.716;2023-03-21T17:41:35;98787.72;;;15.76;45.14
25610;BME280;13479;49.044;8.716;2023-03-21T17:44:01;98774.47;;;15.83;44.40
25610;BME280;13479;49.044;8.716;2023-03-21T17:46:27;98786.22;;;15.82;43.97
25610;BME280;13479;49.044;8.716;2023-03-21T17:48:56;98779.84;;;15.74;44.80
25610;BME280;13479;49.044;8.716;2023-03-21T17:51:21;98784.38;;;15.74;45.24
25610;BME280;13479;49.044;8.716;2023-03-21T17:53:50;98782.59;;;15.58;45.06
25610;BME280;13479;49.044;8.716;2023-03-21T17:56:19;98772.88;;;15.49;44.99
25610;BME280;13479;49.044;8.716;2023-03-21T17:58:45;98763.22;;;15.48;44.95
25610;BME280;13479;49.044;8.716;2023-03-21T18:01:11;98772.91;;;15.40;45.71
25610;BME280;13479;49.044;8.716;2023-03-21T18:03:37;98776.78;;;15.29;46.44
25610;BME280;13479;49.044;8.716;2023-03-21T18:06:02;98780.09;;;15.32;47.06
25610;BME280;13479;49.044;8.716;2023-03-21T18:08:28;98783.44;;;15.34;46.92
25610;BME280;13479;49.044;8.716;2023-03-21T18:10:53;98784.97;;;15.28;47.14
25610;BME280;13479;49.044;8.716;2023-03-21T18:13:18;98778.28;;;15.16;47.59
25610;BME280;13479;49.044;8.716;2023-03-21T18:15:44;98779.13;;;15.24;47.84
25610;BME280;13479;49.044;8.716;2023-03-21T18:18:12;98776.94;;;15.20;48.03
25610;BME280;13479;49.044;8.716;2023-03-21T18:20:37;98789.31;;;15.12;48.79
25610;BME280;13479;49.044;8.716;2023-03-21T18:23:03;98784.31;;;15.01;49.40
25610;BME280;13479;49.044;8.716;2023-03-21T18:25:29;98783.28;;;14.94;49.78
25610;BME280;13479;49.044;8.716;2023-03-21T18:27:54;98770.59;;;14.96;49.60
25610;BME280;13479;49.044;8.716;2023-03-21T18:30:20;98766.44;;;14.93;50.00
25610;BME280;13479;49.044;8.716;2023-03-21T18:32:46;98759.25;;;14.77;49.91
25610;BME280;13479;49.044;8.716;2023-03-21T18:35:15;98768.53;;;14.65;50.31
25610;BME280;13479;49.044;8.716;2023-03-21T18:37:41;98775.88;;;14.55;50.71
25610;BME280;13479;49.044;8.716;2023-03-21T18:40:07;98778.88;;;14.51;50.54
25610;BME280;13479;49.044;8.716;2023-03-21T18:42:36;98783.53;;;14.41;51.00
25610;BME280;13479;49.044;8.716;2023-03-21T18:45:01;98791.75;;;14.64;49.41
25610;BME280;13479;49.044;8.716;2023-03-21T18:47:27;98784.56;;;14.65;49.69
25610;BME280;13479;49.044;8.716;2023-03-21T18:49:53;98777.34;;;14.41;50.18
25610;BME280;13479;49.044;8.716;2023-03-21T18:52:18;98771.28;;;14.30;50.59
25610;BME280;13479;49.044;8.716;2023-03-21T18:54:43;98778.47;;;14.21;50.84
25610;BME280;13479;49.044;8.716;2023-03-21T18:57:09;98784.44;;;14.15;51.12
25610;BME280;13479;49.044;8.716;2023-03-21T18:59:34;98790.13;;;14.20;50.33
25610;BME280;13479;49.044;8.716;2023-03-21T19:02:01;98780.09;;;14.14;50.13
25610;BME280;13479;49.044;8.716;2023-03-21T19:04:26;98775.13;;;14.19;50.03
25610;BME280;13479;49.044;8.716;2023-03-21T19:06:52;98768.16;;;14.35;49.26
25610;BME280;13479;49.044;8.716;2023-03-21T19:09:18;98785.69;;;14.46;49.35